Terminal Aerodrome Forecast
Issued by NWS

Home | Current Version | Previous Version | Text Only | Print | Product List | Glossary On
Versions: 1 2 3 4 5 6 7 8 9 10 11 12 13 14 15 16 17 18 19 20 21
000
FTUS44 KLZK 302257 AAB
TAFHOT
TAF AMD
KHOT 302257Z 3023/3118 25005KT P6SM -RA VCTS FEW015 SCT030CB SCT250
      TEMPO 3023/3024 5SM -TSRA BR SCT030CB BKN100
     FM310100 23004KT P6SM FEW040 SCT100 BKN250
     FM310900 23002KT P6SM FEW008 SCT015
      TEMPO 3111/3114 5SM BR BKN015
     FM311500 21005KT P6SM SCT020 BKN035 BKN250
     FM311700 22006KT P6SM VCTS SCT050CB BKN250=

USA.gov is the U.S. government's official web portal to all federal, state and local government web resources and services.